Time;durP1;ratioP1;P1;durP2;ratioP2;P2;SDS_P1;SDS_P2;PMS_P1;PMS_P2;Temp;Humidity;BMP_temperature;BMP_pressure;BME280_temperature;BME280_humidity;BME280_pressure;Samples;Min_cycle;Max_cycle;Signal;HPM_P1;HPM_P2
2024/02/06 01:11:46;;;;;;;1.53;1.10;;;9.80;98.20;;;;;;6223214;23;20418;-86
2024/02/06 01:14:19;;;;;;;1.50;1.10;;;9.90;98.20;;;;;;6177583;23;20489;-87
2024/02/06 01:19:30;;;;;;;1.57;1.10;;;9.90;98.20;;;;;;6122790;23;20440;-86
2024/02/06 01:22:08;;;;;;;1.57;1.17;;;10.00;98.20;;;;;;6189175;23;20558;-84
2024/02/06 01:24:51;;;;;;;1.50;1.10;;;10.00;98.20;;;;;;6222254;23;20438;-86
2024/02/06 01:27:36;;;;;;;1.60;1.50;;;10.00;98.20;;;;;;6188988;23;21019;-86
2024/02/06 01:30:09;;;;;;;1.60;1.10;;;10.00;98.20;;;;;;6228557;23;20430;-85
2024/02/06 01:32:40;;;;;;;1.50;1.10;;;10.00;98.20;;;;;;6183188;23;20515;-86
2024/02/06 01:35:11;;;;;;;1.50;1.10;;;10.00;98.20;;;;;;6226866;23;20411;-86
2024/02/06 01:40:31;;;;;;;1.60;1.20;;;10.00;98.20;;;;;;6221148;23;20414;-85
2024/02/06 01:43:06;;;;;;;1.57;1.20;;;10.00;98.20;;;;;;6179575;23;20474;-86
2024/02/06 01:45:33;;;;;;;1.53;1.20;;;10.00;98.20;;;;;;6228648;23;20478;-86
2024/02/06 01:48:04;;;;;;;1.60;1.10;;;10.00;98.20;;;;;;6179602;23;20454;-85
2024/02/06 01:50:31;;;;;;;1.53;1.10;;;10.00;98.20;;;;;;6230000;23;20422;-87
2024/02/06 01:52:58;;;;;;;1.53;1.10;;;10.00;98.20;;;;;;6179993;23;20474;-87
2024/02/06 01:55:26;;;;;;;1.53;1.20;;;10.00;98.20;;;;;;6230418;23;20421;-87
2024/02/06 01:58:04;;;;;;;1.57;1.10;;;10.00;98.20;;;;;;6181256;23;20510;-86
2024/02/06 02:00:33;;;;;;;1.60;1.20;;;9.90;98.20;;;;;;6230102;23;20419;-87
2024/02/06 02:03:00;;;;;;;1.57;1.10;;;9.90;98.20;;;;;;6178814;23;20458;-87
2024/02/06 02:05:27;;;;;;;1.60;1.20;;;9.90;98.20;;;;;;6230942;23;20451;-86
2024/02/06 02:08:01;;;;;;;1.50;1.10;;;9.90;98.20;;;;;;6179830;23;20448;-88
2024/02/06 02:10:29;;;;;;;1.50;1.10;;;9.90;98.20;;;;;;6231080;23;20766;-87
2024/02/06 02:13:06;;;;;;;1.50;1.10;;;9.90;98.20;;;;;;6178499;23;20460;-87
2024/02/06 02:15:45;;;;;;;1.57;1.20;;;9.90;98.20;;;;;;6231364;23;20407;-86
2024/02/06 02:18:20;;;;;;;1.60;1.30;;;9.90;98.20;;;;;;6180584;23;20446;-87
2024/02/06 02:20:55;;;;;;;1.60;1.10;;;9.90;98.20;;;;;;6230794;23;20505;-86
2024/02/06 02:23:29;;;;;;;1.57;1.10;;;9.90;98.20;;;;;;6178503;23;20434;-87
2024/02/06 02:26:00;;;;;;;1.53;1.10;;;9.90;98.20;;;;;;6212267;23;20449;-87
2024/02/06 02:28:30;;;;;;;1.57;1.10;;;9.90;98.20;;;;;;6207363;23;20433;-86
2024/02/06 02:30:58;;;;;;;1.57;1.10;;;9.90;98.20;;;;;;6210572;23;20419;-86
2024/02/06 02:33:31;;;;;;;1.53;1.10;;;9.90;98.20;;;;;;6196736;23;20614;-86
2024/02/06 02:35:58;;;;;;;1.60;1.20;;;9.90;98.20;;;;;;6211905;23;20395;-87
2024/02/06 02:38:30;;;;;;;1.60;1.10;;;9.90;98.20;;;;;;6205080;23;20411;-87
2024/02/06 02:40:57;;;;;;;1.60;1.10;;;9.90;98.20;;;;;;6212805;23;20498;-87
2024/02/06 02:43:25;;;;;;;1.57;1.10;;;9.90;98.20;;;;;;6198697;23;20438;-87
2024/02/06 02:45:52;;;;;;;1.53;1.10;;;9.90;98.20;;;;;;6212534;23;20442;-85
2024/02/06 02:48:35;;;;;;;;;;;;;;;;;;;;;
2024/02/06 02:51:17;;;;;;;1.60;1.17;;;9.90;98.20;;;;;;6204756;23;20391;-86
2024/02/06 02:53:51;;;;;;;3.43;3.13;;;9.90;98.20;;;;;;6209109;23;20939;-87
2024/02/06 02:59:12;;;;;;;1.53;1.10;;;9.90;98.20;;;;;;6201501;23;20422;-86
2024/02/06 03:02:06;;;;;;;2.33;2.13;;;9.90;98.20;;;;;;6201494;23;20518;-86
2024/02/06 03:05:12;;;;;;;1.57;1.10;;;9.90;98.20;;;;;;6223472;23;20522;-86
2024/02/06 03:07:55;;;;;;;1.60;1.10;;;9.90;98.20;;;;;;6010636;23;20435;-87
2024/02/06 03:10:37;;;;;;;1.60;1.20;;;9.90;98.20;;;;;;6231141;23;20423;-87
2024/02/06 03:13:14;;;;;;;1.60;1.23;;;9.90;98.20;;;;;;6178973;23;20564;-86
2024/02/06 03:15:41;;;;;;;1.60;1.10;;;10.00;98.20;;;;;;6233368;23;20593;-86
2024/02/06 03:18:08;;;;;;;1.53;1.10;;;10.00;98.20;;;;;;6181845;23;20440;-87
2024/02/06 03:20:35;;;;;;;1.50;1.10;;;10.00;98.20;;;;;;6233007;23;20419;-87
2024/02/06 03:23:16;;;;;;;1.60;1.20;;;10.00;98.20;;;;;;6181251;23;20455;-86
2024/02/06 03:25:51;;;;;;;1.57;1.10;;;10.00;98.20;;;;;;6233503;23;20446;-86
2024/02/06 03:28:21;;;;;;;1.53;1.00;;;10.00;98.20;;;;;;6185781;23;20423;-87
2024/02/06 03:30:50;;;;;;;1.93;1.73;;;10.00;98.20;;;;;;6236542;23;20642;-87
2024/02/06 03:33:22;;;;;;;1.60;1.27;;;10.00;98.20;;;;;;6196647;23;20506;-86
2024/02/06 03:39:03;;;;;;;1.60;1.10;;;10.00;98.20;;;;;;6170889;23;20470;-88
2024/02/06 03:41:40;;;;;;;1.50;1.10;;;10.10;98.20;;;;;;6193060;23;20451;-87
2024/02/06 03:44:50;;;;;;;1.60;1.13;;;10.10;98.20;;;;;;6214038;23;20439;-86
2024/02/06 03:50:33;;;;;;;1.60;1.20;;;10.10;98.20;;;;;;6216118;23;20420;-86
2024/02/06 03:56:09;;;;;;;;;;;;;;;;;;;;;
2024/02/06 03:58:45;;;;;;;1.50;1.10;;;10.10;98.20;;;;;;6154763;23;20412;-85
2024/02/06 04:01:19;;;;;;;1.53;1.10;;;10.10;98.20;;;;;;6156185;23;20467;-86
2024/02/06 04:04:04;;;;;;;1.50;1.00;;;10.10;98.20;;;;;;6153704;23;20441;-87
2024/02/06 04:06:36;;;;;;;1.53;1.07;;;10.10;98.20;;;;;;6124943;23;20449;-87
2024/02/06 04:09:11;;;;;;;1.60;1.10;;;10.10;98.20;;;;;;6156786;23;20414;-87
2024/02/06 04:11:41;;;;;;;1.57;1.10;;;10.10;98.20;;;;;;6134776;23;20509;-87
2024/02/06 04:14:41;;;;;;;1.53;1.10;;;10.10;98.20;;;;;;6156774;23;20446;-85
2024/02/06 04:17:49;;;;;;;1.53;1.10;;;10.10;98.20;;;;;;6139534;23;21020;-86
2024/02/06 04:20:18;;;;;;;1.60;1.30;;;10.10;98.20;;;;;;6119444;23;20436;-86
2024/02/06 04:22:48;;;;;;;1.60;1.20;;;10.10;98.20;;;;;;6141491;23;20590;-87
2024/02/06 04:25:26;;;;;;;1.60;1.20;;;10.10;98.20;;;;;;6136134;23;20415;-87
2024/02/06 04:27:55;;;;;;;1.60;1.10;;;10.10;98.20;;;;;;6141841;23;20965;-86
2024/02/06 04:30:22;;;;;;;1.53;1.10;;;10.10;98.20;;;;;;6141525;23;20426;-86
2024/02/06 04:32:51;;;;;;;1.60;1.10;;;10.10;98.20;;;;;;6119716;22;20453;-86
2024/02/06 04:35:21;;;;;;;1.53;1.10;;;10.10;98.20;;;;;;6132967;23;20409;-85
2024/02/06 04:39:00;;;;;;;1.60;1.10;;;10.10;98.20;;;;;;6118483;23;20449;-85
2024/02/06 04:41:32;;;;;;;1.50;1.03;;;10.10;98.20;;;;;;6114884;23;20449;-86
2024/02/06 04:44:03;;;;;;;1.60;1.20;;;10.10;98.20;;;;;;6141555;23;20472;-85
2024/02/06 04:47:02;;;;;;;6.03;5.43;;;10.10;98.20;;;;;;6146900;23;20453;-86
2024/02/06 04:53:03;;;;;;;1.53;1.10;;;10.10;98.20;;;;;;6112065;23;20529;-86
2024/02/06 04:58:17;;;;;;;1.60;1.20;;;10.10;98.20;;;;;;6083613;23;20537;-86
2024/02/06 05:03:42;;;;;;;1.60;1.20;;;10.10;98.20;;;;;;6090216;23;20442;-85
2024/02/06 05:06:19;;;;;;;1.53;1.10;;;10.10;98.20;;;;;;6123844;23;20482;-85
2024/02/06 05:08:48;;;;;;;1.53;1.10;;;10.20;98.20;;;;;;6141606;23;20509;-86
2024/02/06 05:11:19;;;;;;;1.57;1.07;;;10.10;98.20;;;;;;6124021;23;20848;-85
2024/02/06 05:14:08;;;;;;;1.60;1.17;;;10.10;98.20;;;;;;6139402;23;20442;-87
2024/02/06 05:16:42;;;;;;;2.13;1.93;;;10.10;98.20;;;;;;6125087;23;20465;-87
2024/02/06 05:19:14;;;;;;;1.57;1.10;;;10.10;98.20;;;;;;6130698;23;20452;-88
2024/02/06 05:24:47;;;;;;;1.57;1.10;;;10.10;98.20;;;;;;6088259;23;20433;-85
2024/02/06 05:27:22;;;;;;;1.60;1.20;;;10.10;98.20;;;;;;6119708;23;20508;-87
2024/02/06 05:30:12;;;;;;;1.57;1.10;;;10.10;98.20;;;;;;6143248;23;20425;-86
2024/02/06 05:33:01;;;;;;;1.50;1.10;;;10.20;98.20;;;;;;6120049;23;20457;-88
2024/02/06 05:35:35;;;;;;;1.60;1.10;;;10.10;98.20;;;;;;6143343;23;20785;-87
2024/02/06 05:38:08;;;;;;;1.60;1.20;;;10.10;98.20;;;;;;6142220;23;20452;-87
2024/02/06 05:40:37;;;;;;;1.50;1.10;;;10.10;98.20;;;;;;6143290;23;20413;-87
2024/02/06 05:43:27;;;;;;;1.50;1.10;;;10.20;98.20;;;;;;6150253;23;20448;-85
2024/02/06 05:45:58;;;;;;;1.60;1.10;;;10.10;98.20;;;;;;6141807;23;20733;-86
2024/02/06 05:48:34;;;;;;;1.57;1.13;;;10.20;98.20;;;;;;6163970;23;20444;-87
2024/02/06 06:06:02;;;;;;;1.53;1.10;;;10.20;98.20;;;;;;6042913;23;20798;-87
2024/02/06 06:08:39;;;;;;;1.57;1.10;;;10.20;98.20;;;;;;6080762;23;20455;-86
2024/02/06 06:11:06;;;;;;;1.60;1.10;;;10.20;98.20;;;;;;6154062;23;20413;-86
2024/02/06 06:13:43;;;;;;;1.53;1.10;;;10.20;98.20;;;;;;6168763;23;20444;-87
2024/02/06 06:17:02;;;;;;;1.57;1.10;;;10.20;98.20;;;;;;6174743;23;21054;-86
2024/02/06 06:36:19;;;;;;;1.57;1.10;;;10.20;98.20;;;;;;5867978;24;20417;-85
2024/02/06 06:42:58;;;;;;;1.57;1.10;;;10.20;98.20;;;;;;6054781;23;20467;-86
2024/02/06 07:03:01;;;;;;;1.57;1.10;;;10.30;98.20;;;;;;6113557;23;20499;-85
2024/02/06 07:08:59;;;;;;;1.57;1.10;;;10.30;98.20;;;;;;6152756;23;20473;-85
2024/02/06 07:15:17;;;;;;;1.60;1.30;;;10.30;98.20;;;;;;6180026;23;20443;-85
2024/02/06 07:21:01;;;;;;;1.50;1.10;;;10.30;98.20;;;;;;6183737;23;20408;-83
2024/02/06 07:23:30;;;;;;;1.60;1.10;;;10.30;98.20;;;;;;6128636;23;20937;-83
2024/02/06 07:26:11;;;;;;;1.60;1.20;;;10.30;98.20;;;;;;6154998;23;20416;-84
2024/02/06 07:28:54;;;;;;;1.60;1.10;;;10.30;98.20;;;;;;6170354;23;20437;-84
2024/02/06 07:31:40;;;;;;;1.60;1.20;;;10.30;98.20;;;;;;6153198;23;20448;-84
2024/02/06 07:34:18;;;;;;;1.60;1.20;;;10.40;98.20;;;;;;6168292;23;20441;-84
2024/02/06 07:36:53;;;;;;;1.60;1.20;;;10.40;98.20;;;;;;6148339;23;20448;-84
2024/02/06 07:39:30;;;;;;;1.53;1.10;;;10.40;98.20;;;;;;6173387;23;20419;-85
2024/02/06 07:41:57;;;;;;;1.60;1.10;;;10.40;98.20;;;;;;6153066;23;20479;-85
2024/02/06 07:44:58;;;;;;;1.50;1.20;;;10.40;98.20;;;;;;6172185;23;20519;-85
2024/02/06 07:47:29;;;;;;;1.60;1.20;;;10.50;98.20;;;;;;6152657;23;20448;-87
2024/02/06 07:50:11;;;;;;;1.50;1.10;;;10.50;98.20;;;;;;6174832;23;20416;-84
2024/02/06 07:52:44;;;;;;;1.53;1.10;;;10.50;98.20;;;;;;6150298;23;20460;-84
2024/02/06 07:55:11;;;;;;;1.60;1.10;;;10.50;98.20;;;;;;6175757;23;20424;-84
2024/02/06 07:57:51;;;;;;;1.60;1.10;;;10.60;98.20;;;;;;6157402;23;20445;-85
2024/02/06 08:00:41;;;;;;;1.60;1.10;;;10.60;98.20;;;;;;6185972;23;20381;-87
2024/02/06 08:03:09;;;;;;;1.60;1.20;;;10.60;98.20;;;;;;6154175;23;20553;-86
2024/02/06 08:05:42;;;;;;;1.70;1.37;;;10.60;98.20;;;;;;6163047;23;20432;-84
2024/02/06 08:08:17;;;;;;;1.60;1.20;;;10.60;98.20;;;;;;6146030;23;20520;-85
2024/02/06 08:10:46;;;;;;;1.57;1.20;;;10.60;98.20;;;;;;6172155;23;20428;-85
2024/02/06 08:13:15;;;;;;;1.60;1.10;;;10.70;98.20;;;;;;6119176;23;20440;-86
2024/02/06 08:18:53;;;;;;;1.50;1.10;;;10.70;98.20;;;;;;6172496;23;20467;-83
2024/02/06 08:21:23;;;;;;;1.60;1.10;;;10.70;98.20;;;;;;6160020;23;20527;-84
2024/02/06 08:23:50;;;;;;;1.60;1.20;;;10.70;98.20;;;;;;6180073;23;20444;-84
2024/02/06 08:26:20;;;;;;;1.53;1.10;;;10.70;98.20;;;;;;6172327;23;20479;-82
2024/02/06 08:28:48;;;;;;;1.57;1.10;;;10.80;98.20;;;;;;6174221;23;20658;-83
2024/02/06 08:31:15;;;;;;;1.50;1.10;;;10.80;98.20;;;;;;6167861;23;20449;-84
2024/02/06 08:33:44;;;;;;;1.57;1.10;;;10.80;98.20;;;;;;6161716;23;21034;-83
2024/02/06 08:36:42;;;;;;;1.50;1.00;;;10.80;98.20;;;;;;6174446;23;20532;-83
2024/02/06 08:39:15;;;;;;;2.60;2.40;;;10.80;98.20;;;;;;6182938;23;20495;-83
2024/02/06 08:41:43;;;;;;;1.53;1.10;;;10.90;98.20;;;;;;6158725;23;20460;-84
2024/02/06 08:44:12;;;;;;;1.60;1.10;;;10.90;98.20;;;;;;6183639;23;20444;-84
2024/02/06 08:46:42;;;;;;;1.53;1.10;;;10.90;98.20;;;;;;6162104;23;20687;-83
2024/02/06 08:49:14;;;;;;;1.50;1.00;;;10.90;98.20;;;;;;6176286;23;20440;-84
2024/02/06 08:51:58;;;;;;;1.60;1.10;;;10.90;98.20;;;;;;6168174;23;20525;-83
2024/02/06 08:54:33;;;;;;;1.60;1.10;;;10.90;98.20;;;;;;6186909;23;20447;-82
2024/02/06 08:56:59;;;;;;;1.53;1.00;;;11.00;98.20;;;;;;6162643;23;20850;-83
2024/02/06 08:59:27;;;;;;;1.60;1.20;;;11.00;98.20;;;;;;6186238;23;21037;-82
2024/02/06 09:01:54;;;;;;;1.60;1.20;;;11.00;98.20;;;;;;6161183;23;20479;-81
2024/02/06 09:04:21;;;;;;;1.60;1.20;;;11.00;98.20;;;;;;6174405;23;20436;-80
2024/02/06 09:06:52;;;;;;;1.60;1.10;;;11.00;98.20;;;;;;6156062;23;20476;-82
2024/02/06 09:09:20;;;;;;;1.70;1.40;;;11.00;98.20;;;;;;6173608;23;20436;-81
2024/02/06 09:11:48;;;;;;;1.57;1.10;;;11.00;98.20;;;;;;6155301;23;20978;-82
2024/02/06 09:14:21;;;;;;;1.57;1.10;;;11.10;98.20;;;;;;6172505;23;20468;-81
2024/02/06 09:16:49;;;;;;;1.53;1.00;;;11.10;98.20;;;;;;6160542;23;20744;-82
2024/02/06 09:19:16;;;;;;;1.60;1.20;;;11.10;98.20;;;;;;6183184;23;20405;-82
2024/02/06 09:21:51;;;;;;;1.60;1.10;;;11.10;98.20;;;;;;6162771;23;20448;-82
2024/02/06 09:24:20;;;;;;;1.60;1.20;;;11.10;98.20;;;;;;6179799;23;20451;-83
2024/02/06 09:26:54;;;;;;;1.60;1.10;;;11.00;98.20;;;;;;6163814;23;20448;-83
2024/02/06 09:29:22;;;;;;;1.60;1.20;;;11.00;98.20;;;;;;6175318;23;20459;-83
2024/02/06 09:31:49;;;;;;;1.60;1.10;;;11.00;98.20;;;;;;6164990;23;20449;-85
2024/02/06 09:34:16;;;;;;;1.60;1.10;;;10.90;98.20;;;;;;6185647;23;20455;-83
2024/02/06 09:36:48;;;;;;;2.17;1.97;;;10.90;98.20;;;;;;6162825;23;20459;-84
2024/02/06 09:39:15;;;;;;;1.60;1.13;;;10.90;98.20;;;;;;6185838;23;20713;-83
2024/02/06 09:41:49;;;;;;;1.60;1.20;;;10.90;98.20;;;;;;6164723;23;20536;-84
2024/02/06 09:44:18;;;;;;;1.57;1.10;;;10.90;98.20;;;;;;6182140;23;20428;-80
2024/02/06 09:46:46;;;;;;;1.60;1.33;;;10.90;98.20;;;;;;6158072;23;20452;-83
2024/02/06 09:49:13;;;;;;;1.50;1.10;;;11.00;98.20;;;;;;6182576;23;20792;-82
2024/02/06 09:51:42;;;;;;;1.53;1.10;;;10.90;98.20;;;;;;6166979;23;20449;-83
2024/02/06 09:54:13;;;;;;;1.60;1.10;;;10.90;98.20;;;;;;6181600;23;20474;-82
2024/02/06 09:56:41;;;;;;;1.57;1.10;;;10.90;98.20;;;;;;6165328;23;20449;-82
2024/02/06 09:59:09;;;;;;;1.53;0.90;;;10.90;98.20;;;;;;6181436;23;20771;-83
2024/02/06 10:01:42;;;;;;;1.53;1.10;;;10.90;98.20;;;;;;6158566;23;20448;-83
2024/02/06 10:04:12;;;;;;;1.60;1.10;;;10.90;98.20;;;;;;6182132;23;20537;-84
2024/02/06 10:06:48;;;;;;;1.60;1.20;;;10.90;98.20;;;;;;6165273;23;20461;-83
2024/02/06 10:09:17;;;;;;;1.50;1.07;;;11.00;98.20;;;;;;6173376;23;20431;-82
2024/02/06 10:11:43;;;;;;;1.60;1.10;;;11.00;98.20;;;;;;6164682;23;20476;-83
2024/02/06 10:14:11;;;;;;;1.60;1.10;;;11.00;98.20;;;;;;6180512;23;20428;-82
2024/02/06 10:24:25;;;;;;;1.53;1.07;;;11.00;98.20;;;;;;5997030;23;20460;-89
2024/02/06 10:31:06;;;;;;;1.60;1.37;;;11.00;98.20;;;;;;6089043;23;20450;-84
2024/02/06 10:33:35;;;;;;;1.60;1.20;;;11.10;98.20;;;;;;6147300;23;20591;-85
2024/02/06 10:36:03;;;;;;;1.53;1.10;;;11.10;98.20;;;;;;6171976;23;20470;-84
2024/02/06 10:38:36;;;;;;;1.57;1.10;;;11.10;98.20;;;;;;6160297;23;20411;-83
2024/02/06 10:41:08;;;;;;;1.50;1.10;;;11.10;98.20;;;;;;6162012;23;20439;-83
2024/02/06 10:43:35;;;;;;;1.53;1.10;;;11.10;98.20;;;;;;6168654;23;20431;-84
2024/02/06 10:46:05;;;;;;;1.60;1.10;;;11.20;98.20;;;;;;6169322;23;21036;-83
2024/02/06 10:48:37;;;;;;;1.53;1.00;;;11.20;98.20;;;;;;6164753;23;20447;-83
2024/02/06 10:51:04;;;;;;;1.60;1.10;;;11.20;98.20;;;;;;6161832;23;20422;-83
2024/02/06 10:56:55;;;;;;;1.57;1.10;;;11.30;98.20;;;;;;6116977;23;20449;-86
2024/02/06 10:59:31;;;;;;;1.57;1.10;;;11.30;98.20;;;;;;6140688;23;20435;-85
2024/02/06 11:01:58;;;;;;;1.57;1.10;;;11.30;98.20;;;;;;6153175;23;20905;-83
2024/02/06 11:04:28;;;;;;;1.60;1.20;;;11.30;98.20;;;;;;6176434;23;20428;-83
2024/02/06 11:07:05;;;;;;;1.60;1.10;;;11.30;98.20;;;;;;6149572;23;20464;-83
2024/02/06 11:09:35;;;;;;;2.80;2.60;;;11.40;98.20;;;;;;6170168;23;20428;-83
2024/02/06 11:12:02;;;;;;;1.50;1.10;;;11.40;98.20;;;;;;6146438;23;20456;-81
2024/02/06 11:14:30;;;;;;;1.60;1.30;;;11.60;98.20;;;;;;6166618;23;20439;-81
2024/02/06 11:17:00;;;;;;;1.60;1.10;;;11.60;98.20;;;;;;6147660;23;20444;-82
2024/02/06 11:19:36;;;;;;;2.33;2.13;;;11.70;98.20;;;;;;6169955;23;20756;-83
2024/02/06 11:22:13;;;;;;;1.60;1.10;;;11.70;98.20;;;;;;6148775;23;20448;-82
2024/02/06 11:24:42;;;;;;;1.57;1.10;;;11.70;98.20;;;;;;6173098;23;20442;-82
2024/02/06 11:27:09;;;;;;;2.23;2.03;;;11.70;98.20;;;;;;6146113;23;20448;-83
2024/02/06 11:29:37;;;;;;;1.57;1.10;;;11.70;98.20;;;;;;6171152;23;20455;-83
2024/02/06 11:32:04;;;;;;;1.57;1.07;;;11.70;98.20;;;;;;6147453;23;20507;-83
2024/02/06 11:34:33;;;;;;;1.60;1.10;;;11.70;98.20;;;;;;6169925;23;20904;-83
2024/02/06 11:37:01;;;;;;;1.60;1.17;;;11.70;98.20;;;;;;6148321;23;20445;-82
2024/02/06 11:39:29;;;;;;;1.60;1.13;;;11.70;98.20;;;;;;6171717;23;20420;-83
2024/02/06 11:42:03;;;;;;;1.57;1.10;;;11.70;98.20;;;;;;6151425;23;20732;-84
2024/02/06 11:44:43;;;;;;;1.60;1.10;;;11.70;98.20;;;;;;6182142;23;20462;-83
2024/02/06 11:47:20;;;;;;;1.60;1.10;;;11.80;98.20;;;;;;6151848;23;20561;-83
2024/02/06 11:49:51;;;;;;;1.60;1.13;;;11.90;98.20;;;;;;6185477;23;20470;-83
2024/02/06 11:52:24;;;;;;;1.53;1.00;;;12.00;98.20;;;;;;6146030;23;20452;-83
2024/02/06 11:55:03;;;;;;;1.60;1.10;;;12.00;98.20;;;;;;6185325;23;21176;-84
2024/02/06 11:57:31;;;;;;;1.60;1.10;;;12.00;98.20;;;;;;6145535;23;20508;-82
2024/02/06 11:59:59;;;;;;;1.53;1.00;;;12.00;98.20;;;;;;6189248;23;20897;-83
2024/02/06 12:02:27;;;;;;;1.60;1.03;;;12.00;98.20;;;;;;6144341;23;20519;-83
2024/02/06 12:05:06;;;;;;;1.60;1.10;;;12.00;98.20;;;;;;6177642;23;20420;-84
2024/02/06 12:07:33;;;;;;;1.60;1.20;;;11.90;98.20;;;;;;6144605;23;20459;-83
2024/02/06 12:10:00;;;;;;;1.60;1.10;;;11.90;98.20;;;;;;6188276;23;20991;-84
2024/02/06 12:12:34;;;;;;;1.57;1.00;;;11.90;98.20;;;;;;6145855;23;20456;-84
2024/02/06 12:15:03;;;;;;;1.60;1.10;;;11.90;98.20;;;;;;6188307;23;20408;-83
2024/02/06 12:17:33;;;;;;;1.57;1.10;;;11.90;98.20;;;;;;6145733;23;20471;-82
2024/02/06 12:20:03;;;;;;;1.53;1.10;;;11.90;98.20;;;;;;6188169;23;20408;-85
2024/02/06 12:25:07;;;;;;;1.57;1.00;;;11.90;98.20;;;;;;6208981;23;20455;-82
2024/02/06 12:27:38;;;;;;;1.70;1.60;;;11.90;98.20;;;;;;6198927;23;20521;-82
2024/02/06 12:30:09;;;;;;;2.47;2.27;;;11.90;98.20;;;;;;6223208;23;20509;-84
2024/02/06 12:32:36;;;;;;;1.57;1.03;;;11.90;98.20;;;;;;6196443;23;21045;-85
2024/02/06 12:35:04;;;;;;;1.53;1.07;;;11.90;98.20;;;;;;6196990;23;20408;-84
2024/02/06 12:37:32;;;;;;;1.53;1.00;;;12.00;98.20;;;;;;6171902;23;20518;-83
2024/02/06 12:40:00;;;;;;;1.60;1.10;;;12.00;98.20;;;;;;6195185;23;20475;-83
2024/02/06 12:43:01;;;;;;;1.83;1.63;;;12.00;98.20;;;;;;6173083;23;20443;-83
2024/02/06 12:45:29;;;;;;;1.60;1.20;;;12.10;98.20;;;;;;6181717;23;20412;-84
2024/02/06 12:47:58;;;;;;;1.60;1.10;;;12.20;98.20;;;;;;6167439;23;20447;-85
2024/02/06 12:50:26;;;;;;;1.70;1.20;;;12.30;98.20;;;;;;6180423;23;21030;-82
2024/02/06 12:52:54;;;;;;;4.47;1.77;;;12.40;98.20;;;;;;6162556;23;20952;-84
2024/02/06 12:55:22;;;;;;;1.73;1.43;;;12.50;98.20;;;;;;6180078;23;20420;-82
2024/02/06 12:58:00;;;;;;;1.57;1.00;;;12.50;98.20;;;;;;6164039;23;20451;-82
2024/02/06 13:00:26;;;;;;;1.60;1.10;;;12.60;98.20;;;;;;6190177;23;20455;-82
2024/02/06 13:03:05;;;;;;;1.57;1.03;;;12.60;98.20;;;;;;6162892;23;20478;-83
2024/02/06 13:05:41;;;;;;;1.53;1.10;;;12.60;98.20;;;;;;6188430;23;20424;-81
2024/02/06 13:08:13;;;;;;;1.70;1.40;;;12.60;98.20;;;;;;6163500;23;20792;-82
2024/02/06 13:10:41;;;;;;;1.60;1.10;;;12.60;98.20;;;;;;6188873;23;20448;-83
2024/02/06 13:13:13;;;;;;;1.60;1.17;;;12.60;98.20;;;;;;6162361;23;20459;-83
2024/02/06 13:15:40;;;;;;;1.73;1.30;;;12.60;98.20;;;;;;6187259;23;21021;-83
2024/02/06 13:18:08;;;;;;;1.53;1.00;;;12.50;98.20;;;;;;6162992;23;20836;-84
2024/02/06 13:20:38;;;;;;;1.60;1.00;;;12.50;98.20;;;;;;6178064;23;20416;-84
2024/02/06 13:23:12;;;;;;;1.53;1.00;;;12.50;98.20;;;;;;6164172;23;20467;-83
2024/02/06 13:25:40;;;;;;;1.60;1.10;;;12.40;98.20;;;;;;6187452;23;20412;-84
2024/02/06 13:28:09;;;;;;;1.60;1.17;;;12.40;98.20;;;;;;6161893;23;20519;-83
2024/02/06 13:30:37;;;;;;;1.60;1.10;;;12.40;98.20;;;;;;6179107;23;20506;-83
2024/02/06 13:33:10;;;;;;;1.60;1.10;;;12.30;98.20;;;;;;6163825;23;20731;-82
2024/02/06 13:35:37;;;;;;;1.57;1.00;;;12.30;98.20;;;;;;6188650;23;20416;-83
2024/02/06 13:38:08;;;;;;;1.57;1.00;;;12.30;98.20;;;;;;6163881;23;20482;-83
2024/02/06 13:43:56;;;;;;;1.60;1.10;;;12.30;98.20;;;;;;6242701;23;20423;-79
2024/02/06 13:49:30;;;;;;;1.77;1.67;;;12.20;98.20;;;;;;6185998;23;20442;-83
2024/02/06 13:51:57;;;;;;;1.53;1.00;;;12.20;98.20;;;;;;6156712;23;20449;-83
2024/02/06 13:57:45;;;;;;;1.60;1.10;;;12.10;98.20;;;;;;6119684;23;20452;-83
2024/02/06 14:00:38;;;;;;;1.53;1.00;;;12.10;98.20;;;;;;6167439;23;20490;-83
2024/02/06 14:03:18;;;;;;;1.57;1.00;;;12.10;98.20;;;;;;6117662;23;20448;-83
2024/02/06 14:08:58;;;;;;;1.60;1.10;;;12.10;98.20;;;;;;6113655;23;20565;-82
2024/02/06 14:11:38;;;;;;;1.60;1.10;;;12.10;98.20;;;;;;6144237;23;20675;-83
2024/02/06 14:14:31;;;;;;;1.57;1.00;;;12.20;98.20;;;;;;6164961;23;20445;-82
2024/02/06 14:17:17;;;;;;;1.60;1.10;;;12.20;98.20;;;;;;6143344;23;20449;-81
2024/02/06 14:20:06;;;;;;;1.60;1.10;;;12.20;98.20;;;;;;6166816;23;20431;-81
2024/02/06 14:23:17;;;;;;;1.60;1.10;;;12.20;98.20;;;;;;6154035;23;20520;-83
2024/02/06 14:29:21;;;;;;;1.57;1.00;;;12.30;98.20;;;;;;6108142;23;20445;-82
2024/02/06 14:31:52;;;;;;;1.60;1.40;;;12.30;98.20;;;;;;6139919;23;20476;-82
2024/02/06 14:34:28;;;;;;;1.60;1.20;;;12.30;98.20;;;;;;6159801;23;20448;-80
2024/02/06 14:37:18;;;;;;;1.60;1.30;;;12.30;98.20;;;;;;6146141;23;20455;-82
2024/02/06 14:43:20;;;;;;;1.57;1.10;;;12.40;98.20;;;;;;6052463;23;20447;-81
2024/02/06 14:46:19;;;;;;;1.53;1.00;;;12.40;98.20;;;;;;6142196;23;20922;-82
2024/02/06 14:48:52;;;;;;;1.57;1.00;;;12.50;98.20;;;;;;6088294;23;20441;-82
2024/02/06 14:51:43;;;;;;;1.60;1.07;;;12.50;98.20;;;;;;6116225;23;20519;-82
2024/02/06 14:54:25;;;;;;;1.60;1.10;;;12.50;98.20;;;;;;6187718;23;20526;-83
2024/02/06 14:56:52;;;;;;;1.60;1.10;;;12.50;98.20;;;;;;6174264;23;20960;-81
2024/02/06 14:59:22;;;;;;;1.60;1.10;;;12.50;98.20;;;;;;6215406;23;20423;-83
2024/02/06 15:01:52;;;;;;;1.57;1.00;;;12.50;98.20;;;;;;6189126;23;20483;-81
2024/02/06 15:04:48;;;;;;;1.57;1.00;;;12.50;98.20;;;;;;6195977;23;20452;-83
2024/02/06 15:07:16;;;;;;;2.17;1.97;;;12.40;98.20;;;;;;6158536;23;21019;-80
2024/02/06 15:10:03;;;;;;;1.60;1.00;;;12.40;98.20;;;;;;6182943;23;20447;-82
2024/02/06 15:12:54;;;;;;;1.60;1.10;;;12.40;98.20;;;;;;6153996;23;20445;-81
2024/02/06 15:15:36;;;;;;;1.87;1.67;;;12.30;98.20;;;;;;6161608;23;20435;-81
2024/02/06 15:18:34;;;;;;;1.57;1.10;;;12.30;98.20;;;;;;6148685;23;20452;-81
2024/02/06 15:24:10;;;;;;;1.57;1.00;;;12.20;98.20;;;;;;6126999;23;20439;-84
2024/02/06 15:29:58;;;;;;;1.60;1.17;;;12.20;98.20;;;;;;6029136;23;20538;-81
2024/02/06 15:32:45;;;;;;;1.57;1.10;;;12.10;98.20;;;;;;6110674;23;20482;-81
2024/02/06 15:35:29;;;;;;;1.60;1.10;;;12.10;98.20;;;;;;6203740;23;20443;-82
2024/02/06 15:38:06;;;;;;;1.60;1.10;;;12.00;98.20;;;;;;6143997;23;21007;-81
2024/02/06 15:40:44;;;;;;;1.57;1.07;;;12.00;98.20;;;;;;6184671;23;20422;-82
2024/02/06 15:46:13;;;;;;;1.60;1.00;;;12.00;98.20;;;;;;6163162;23;20428;-81
2024/02/06 15:48:55;;;;;;;1.50;1.00;;;12.00;98.20;;;;;;6181450;23;20911;-81
2024/02/06 15:51:25;;;;;;;1.50;1.00;;;12.00;98.20;;;;;;6166519;23;20448;-81
2024/02/06 15:54:19;;;;;;;1.53;1.00;;;12.00;98.20;;;;;;6169237;23;20436;-82
2024/02/06 15:57:13;;;;;;;1.70;1.40;;;12.00;98.20;;;;;;6161333;23;20531;-83
2024/02/06 15:59:48;;;;;;;1.57;1.00;;;11.90;98.20;;;;;;6169654;23;20431;-82
2024/02/06 16:02:47;;;;;;;1.90;1.63;;;11.90;98.20;;;;;;6152551;23;20452;-81
2024/02/06 16:05:20;;;;;;;1.60;1.10;;;11.90;98.20;;;;;;6191126;23;20421;-82
2024/02/06 16:07:49;;;;;;;1.53;1.10;;;11.90;98.20;;;;;;6144444;23;20500;-84
2024/02/06 16:10:22;;;;;;;1.57;1.00;;;11.80;98.20;;;;;;6195459;23;20523;-81
2024/02/06 16:13:13;;;;;;;1.57;1.00;;;11.80;98.20;;;;;;6138683;23;20543;-83
2024/02/06 16:15:45;;;;;;;1.50;1.00;;;11.80;98.20;;;;;;6143177;23;20459;-82
2024/02/06 16:18:12;;;;;;;1.50;1.00;;;11.70;98.20;;;;;;6136988;23;20442;-82
2024/02/06 16:20:44;;;;;;;1.60;1.20;;;11.70;98.20;;;;;;6186227;23;20992;-82
2024/02/06 16:23:11;;;;;;;1.60;1.00;;;11.70;98.20;;;;;;6143821;23;20464;-80
2024/02/06 16:25:54;;;;;;;1.60;1.10;;;11.70;98.20;;;;;;6185518;23;20410;-84
2024/02/06 16:28:31;;;;;;;1.53;1.00;;;11.60;98.20;;;;;;6162158;23;20458;-84
2024/02/06 16:31:19;;;;;;;1.60;1.10;;;11.50;98.20;;;;;;6171209;23;20454;-85
2024/02/06 16:33:54;;;;;;;1.60;1.10;;;11.40;98.20;;;;;;6163262;23;20473;-84
2024/02/06 16:36:21;;;;;;;1.60;1.10;;;11.30;98.20;;;;;;6171461;23;21133;-83
2024/02/06 16:38:49;;;;;;;1.57;1.10;;;11.20;98.20;;;;;;6177788;23;20475;-83
2024/02/06 16:41:41;;;;;;;1.50;1.07;;;11.10;98.20;;;;;;6170677;23;20448;-82
2024/02/06 16:44:10;;;;;;;1.57;1.07;;;11.10;98.20;;;;;;6185295;23;20463;-83
2024/02/06 16:46:41;;;;;;;1.57;1.00;;;11.00;98.20;;;;;;6167551;23;20459;-81
2024/02/06 16:49:08;;;;;;;1.60;1.27;;;11.00;98.20;;;;;;6183816;23;20813;-82
2024/02/06 16:51:35;;;;;;;1.57;1.10;;;11.00;98.20;;;;;;6163987;23;20486;-83
2024/02/06 16:54:02;;;;;;;1.60;1.10;;;11.00;98.20;;;;;;6177278;23;20491;-83
2024/02/06 16:56:29;;;;;;;1.60;1.20;;;11.00;98.20;;;;;;6163555;23;20451;-81
2024/02/06 16:58:56;;;;;;;1.53;1.10;;;11.00;98.20;;;;;;6178133;23;20424;-82
2024/02/06 17:01:24;;;;;;;1.60;1.30;;;11.00;98.20;;;;;;6172784;23;20475;-81